createdAt,value
2024-02-03T00:00:03.442Z,32.40
2024-02-03T00:02:32.972Z,37.25
2024-02-03T00:05:03.583Z,38.50
2024-02-03T00:07:32.522Z,34.40
2024-02-03T00:10:01.806Z,35.80
2024-02-03T00:12:31.024Z,34.50
2024-02-03T00:15:00.598Z,35.40
2024-02-03T00:17:29.563Z,31.60
2024-02-03T00:19:58.775Z,37.20
2024-02-03T00:22:29.266Z,42.80
2024-02-03T00:24:58.337Z,35.20
2024-02-03T00:27:27.086Z,34.40
2024-02-03T00:29:56.121Z,41.00
2024-02-03T00:32:24.857Z,34.40
2024-02-03T00:34:54.177Z,40.00
2024-02-03T00:37:23.036Z,35.00
2024-02-03T00:39:53.426Z,37.40
2024-02-03T00:42:22.237Z,34.80
2024-02-03T00:44:51.296Z,32.40
2024-02-03T00:47:20.146Z,35.40
2024-02-03T00:49:49.317Z,35.80
2024-02-03T00:52:18.075Z,39.20
2024-02-03T00:54:47.128Z,31.80
2024-02-03T00:57:17.261Z,31.80
2024-02-03T00:59:46.558Z,33.20
2024-02-03T01:02:15.336Z,40.60
2024-02-03T01:04:44.490Z,34.80
2024-02-03T01:07:13.478Z,38.20
2024-02-03T01:09:42.917Z,36.40
2024-02-03T01:12:11.891Z,32.40
2024-02-03T01:14:42.736Z,37.60
2024-02-03T01:17:14.191Z,42.40
2024-02-03T01:19:43.606Z,33.20
2024-02-03T01:22:12.707Z,37.40
2024-02-03T01:24:41.812Z,38.25
2024-02-03T01:27:10.631Z,33.00
2024-02-03T01:29:39.612Z,39.20
2024-02-03T01:32:09.956Z,37.50
2024-02-03T01:34:39.073Z,31.00
2024-02-03T01:37:07.909Z,35.80
2024-02-03T01:39:37.019Z,27.40
2024-02-03T01:42:06.156Z,37.40
2024-02-03T01:44:36.853Z,25.80
2024-02-03T01:47:06.487Z,36.60
2024-02-03T01:49:37.320Z,36.80
2024-02-03T01:52:07.257Z,33.20
2024-02-03T01:54:37.237Z,29.60
2024-02-03T01:57:08.220Z,33.20
2024-02-03T01:59:37.913Z,33.20
2024-02-03T02:02:06.595Z,35.00
2024-02-03T02:04:37.597Z,29.00
2024-02-03T02:07:06.447Z,35.00
2024-02-03T02:09:35.659Z,32.60
2024-02-03T02:12:07.790Z,29.40
2024-02-03T02:14:37.308Z,32.40
2024-02-03T02:17:06.600Z,32.40
2024-02-03T02:19:37.446Z,30.00
2024-02-03T02:22:08.104Z,29.80
2024-02-03T02:24:37.295Z,28.80
2024-02-03T02:27:06.720Z,21.80
2024-02-03T02:29:36.165Z,26.20
2024-02-03T02:32:05.191Z,28.40
2024-02-03T02:34:34.361Z,31.00
2024-02-03T02:37:03.327Z,27.00
2024-02-03T02:39:33.825Z,31.00
2024-02-03T02:42:02.528Z,31.20
2024-02-03T02:44:31.898Z,31.60
2024-02-03T02:47:00.672Z,32.80
2024-02-03T02:49:29.853Z,35.80
2024-02-03T02:51:58.702Z,32.40
2024-02-03T02:54:27.802Z,30.80
2024-02-03T02:56:58.009Z,31.20
2024-02-03T02:59:27.102Z,26.40
2024-02-03T03:01:55.807Z,28.20
2024-02-03T03:04:26.275Z,26.00
2024-02-03T03:06:55.050Z,32.00
2024-02-03T03:09:24.145Z,24.20
2024-02-03T03:11:52.901Z,16.60
2024-02-03T03:14:23.383Z,31.20
2024-02-03T03:16:52.589Z,24.20
2024-02-03T03:19:21.750Z,22.00
2024-02-03T03:21:50.724Z,17.00
2024-02-03T03:24:19.988Z,27.80
2024-02-03T03:26:48.678Z,33.20
2024-02-03T03:29:17.726Z,26.40
2024-02-03T03:31:47.901Z,18.20
2024-02-03T03:34:17.532Z,22.40
2024-02-03T03:36:46.407Z,4.20
2024-02-03T03:39:15.807Z,21.80
2024-02-03T03:41:44.648Z,25.00
2024-02-03T03:44:13.628Z,21.40
2024-02-03T03:46:42.311Z,21.20
2024-02-03T03:49:12.843Z,23.40
2024-02-03T03:51:41.650Z,28.00
2024-02-03T03:54:10.650Z,20.80
2024-02-03T03:56:39.403Z,16.20
2024-02-03T03:59:08.423Z,17.00
2024-02-03T04:01:37.107Z,19.80
2024-02-03T04:04:06.612Z,5.60
2024-02-03T04:06:36.771Z,19.00
2024-02-03T04:09:07.109Z,17.00
2024-02-03T04:11:35.876Z,15.80
2024-02-03T04:14:05.051Z,16.40
2024-02-03T04:16:33.732Z,18.20
2024-02-03T04:19:02.885Z,18.00
2024-02-03T04:21:32.157Z,17.20
2024-02-03T04:24:03.245Z,15.40
2024-02-03T04:26:31.927Z,21.00
2024-02-03T04:29:00.939Z,19.40
2024-02-03T04:31:29.596Z,19.20
2024-02-03T04:34:00.961Z,17.80
2024-02-03T04:36:29.779Z,14.20
2024-02-03T04:38:58.768Z,11.00
2024-02-03T04:41:28.973Z,14.20
2024-02-03T04:43:58.002Z,17.80
2024-02-03T04:46:26.698Z,31.60
2024-02-03T04:48:55.805Z,17.00
2024-02-03T04:51:24.699Z,15.20
2024-02-03T04:53:53.722Z,13.20
2024-02-03T04:56:22.410Z,13.00
2024-02-03T04:58:52.885Z,14.80
2024-02-03T05:01:21.606Z,17.20
2024-02-03T05:03:50.797Z,15.00
2024-02-03T05:06:23.036Z,16.80
2024-02-03T05:08:52.139Z,9.80
2024-02-03T05:11:20.775Z,15.80
2024-02-03T05:13:49.764Z,22.40
2024-02-03T05:16:19.932Z,15.80
2024-02-03T05:18:49.132Z,15.60
2024-02-03T05:21:17.939Z,14.60
2024-02-03T05:23:47.063Z,13.20
2024-02-03T05:26:15.871Z,14.80
2024-02-03T05:28:44.847Z,2.20
2024-02-03T05:31:20.875Z,14.20
2024-02-03T05:33:51.415Z,18.00
2024-02-03T05:36:20.173Z,27.20
2024-02-03T05:38:49.256Z,20.00
2024-02-03T05:41:18.226Z,16.80
2024-02-03T05:43:47.272Z,16.20
2024-02-03T05:46:15.970Z,39.75
2024-02-03T05:48:45.173Z,16.80
2024-02-03T05:51:15.754Z,15.40
2024-02-03T05:53:45.993Z,10.80
2024-02-03T05:56:14.684Z,13.80
2024-02-03T05:58:45.483Z,17.20
2024-02-03T06:01:14.267Z,16.40
2024-02-03T06:03:43.325Z,25.80
2024-02-03T06:06:22.521Z,51.80
2024-02-03T06:08:56.830Z,16.20
2024-02-03T06:11:25.506Z,13.60
2024-02-03T06:13:54.492Z,13.20
2024-02-03T06:16:23.183Z,16.60
2024-02-03T06:18:52.226Z,12.80
2024-02-03T06:21:20.902Z,13.80
2024-02-03T06:23:49.945Z,15.00
2024-02-03T06:26:20.023Z,12.80
2024-02-03T06:28:49.121Z,18.80
2024-02-03T06:31:17.921Z,10.00
2024-02-03T06:33:47.033Z,15.20
2024-02-03T06:36:16.226Z,11.80
2024-02-03T06:38:45.301Z,16.80
2024-02-03T06:41:16.316Z,16.60
2024-02-03T06:43:46.993Z,14.80
2024-02-03T06:46:15.777Z,18.00
2024-02-03T06:48:45.914Z,14.80
2024-02-03T06:51:14.765Z,12.80
2024-02-03T06:53:43.768Z,14.60
2024-02-03T06:56:12.457Z,16.20
2024-02-03T06:58:41.516Z,19.00
2024-02-03T07:01:11.820Z,19.20
2024-02-03T07:03:40.966Z,17.40
2024-02-03T07:06:10.012Z,16.80
2024-02-03T07:08:39.240Z,18.60
2024-02-03T07:11:08.228Z,18.80
2024-02-03T07:13:37.811Z,16.40
2024-02-03T07:16:07.478Z,12.80
2024-02-03T07:18:37.977Z,15.80
2024-02-03T07:21:07.103Z,13.20
2024-02-03T07:23:37.086Z,14.20
2024-02-03T07:26:06.349Z,16.60
2024-02-03T07:28:35.423Z,14.60
2024-02-03T07:31:04.496Z,13.40
2024-02-03T07:33:33.898Z,14.20
2024-02-03T07:36:04.152Z,13.60
2024-02-03T07:38:33.305Z,15.20
2024-02-03T07:41:02.315Z,18.80
2024-02-03T07:43:31.837Z,14.20
2024-02-03T07:46:00.558Z,13.60
2024-02-03T07:48:29.831Z,19.40
2024-02-03T07:50:58.607Z,15.00
2024-02-03T07:53:29.126Z,13.20
2024-02-03T07:55:57.817Z,20.60
2024-02-03T07:58:26.883Z,21.60
2024-02-03T08:00:55.707Z,18.20
2024-02-03T08:03:24.840Z,21.20
2024-02-03T08:05:53.702Z,23.40
2024-02-03T08:08:22.908Z,21.00
2024-02-03T08:10:52.947Z,20.80
2024-02-03T08:13:21.945Z,17.20
2024-02-03T08:15:50.794Z,21.20
2024-02-03T08:18:20.104Z,22.80
2024-02-03T08:20:49.735Z,22.00
2024-02-03T08:23:18.673Z,27.20
2024-02-03T08:25:47.452Z,25.20
2024-02-03T08:28:17.943Z,19.40
2024-02-03T08:30:46.730Z,18.00
2024-02-03T08:33:15.687Z,21.80
2024-02-03T08:35:45.009Z,18.60
2024-02-03T08:38:14.432Z,16.00
2024-02-03T08:40:43.461Z,24.20
2024-02-03T08:43:12.275Z,16.20
2024-02-03T08:45:42.780Z,23.00
2024-02-03T08:48:11.616Z,25.80
2024-02-03T08:50:40.833Z,23.60
2024-02-03T08:53:10.091Z,17.00
2024-02-03T08:55:39.091Z,19.00
2024-02-03T08:58:07.851Z,11.00
2024-02-03T09:00:36.895Z,10.80
2024-02-03T09:03:07.303Z,8.00
2024-02-03T09:05:36.384Z,12.40
2024-02-03T09:08:05.643Z,9.80
2024-02-03T09:10:35.036Z,8.80
2024-02-03T09:13:03.801Z,9.40
2024-02-03T09:15:32.806Z,10.60
2024-02-03T09:18:01.768Z,10.60
2024-02-03T09:20:32.342Z,12.40
2024-02-03T09:23:01.130Z,12.00
2024-02-03T09:25:30.204Z,17.40
2024-02-03T09:27:59.205Z,14.00
2024-02-03T09:30:28.248Z,12.00
2024-02-03T09:32:56.959Z,10.00
2024-02-03T09:35:26.395Z,7.40
2024-02-03T09:37:58.961Z,11.20
2024-02-03T09:40:28.955Z,14.00
2024-02-03T09:42:58.210Z,11.60
2024-02-03T09:45:28.070Z,14.60
2024-02-03T09:47:57.768Z,26.40
2024-02-03T09:50:26.946Z,15.20
2024-02-03T09:52:58.655Z,17.00
2024-02-03T09:55:27.850Z,15.80
2024-02-03T09:57:57.375Z,19.40
2024-02-03T10:00:28.372Z,16.00
2024-02-03T10:02:57.851Z,18.40
2024-02-03T10:05:28.417Z,21.80
2024-02-03T10:08:07.244Z,20.20
2024-02-03T10:13:10.122Z,16.60
2024-02-03T10:15:40.061Z,18.60
2024-02-03T10:18:09.859Z,17.40
2024-02-03T10:20:39.385Z,18.60
2024-02-03T10:23:09.545Z,20.00
2024-02-03T10:25:38.730Z,24.40
2024-02-03T10:28:09.259Z,23.00
2024-02-03T10:30:40.354Z,20.60
2024-02-03T10:33:09.734Z,23.40
2024-02-03T10:35:39.300Z,24.40
2024-02-03T10:38:09.462Z,19.60
2024-02-03T10:40:38.539Z,23.80
2024-02-03T10:43:14.115Z,19.40
2024-02-03T10:45:45.670Z,16.20
2024-02-03T10:48:21.068Z,14.80
2024-02-03T10:50:56.647Z,22.20
2024-02-03T10:53:32.351Z,20.00
2024-02-03T10:56:05.398Z,18.60
2024-02-03T10:58:35.067Z,24.80
2024-02-03T11:01:13.252Z,22.00
2024-02-03T11:03:43.106Z,18.80
2024-02-03T11:06:12.579Z,26.60
2024-02-03T11:08:45.378Z,26.60
2024-02-03T11:11:14.332Z,24.80
2024-02-03T11:13:43.553Z,23.60
2024-02-03T11:16:12.612Z,29.40
2024-02-03T11:18:42.585Z,16.20
2024-02-03T11:21:12.018Z,24.80
2024-02-03T11:23:40.936Z,23.20
2024-02-03T11:26:11.486Z,23.60
2024-02-03T11:28:40.235Z,22.20
2024-02-03T11:31:10.605Z,23.60
2024-02-03T11:33:43.868Z,19.40
2024-02-03T11:36:13.313Z,21.00
2024-02-03T11:38:51.504Z,21.60
2024-02-03T11:41:23.092Z,21.00
2024-02-03T11:43:52.340Z,18.60
2024-02-03T11:46:21.865Z,27.60
2024-02-03T11:48:51.046Z,26.40
2024-02-03T11:51:20.265Z,21.40
2024-02-03T11:53:48.956Z,17.00
2024-02-03T11:56:17.998Z,19.20
2024-02-03T11:58:48.241Z,17.40
2024-02-03T12:01:17.403Z,11.20
2024-02-03T12:03:46.252Z,16.00
2024-02-03T12:06:15.827Z,15.60
2024-02-03T12:08:44.687Z,18.60
2024-02-03T12:11:14.186Z,18.80
2024-02-03T12:13:45.180Z,16.60
2024-02-03T12:16:15.629Z,21.00
2024-02-03T12:18:44.561Z,20.60
2024-02-03T12:21:13.789Z,17.20
2024-02-03T12:23:42.631Z,17.60
2024-02-03T12:26:11.968Z,15.00
2024-02-03T12:28:41.085Z,18.60
2024-02-03T12:31:10.256Z,17.00
2024-02-03T12:33:40.543Z,19.60
2024-02-03T12:36:10.460Z,21.60
2024-02-03T12:38:39.600Z,20.60
2024-02-03T12:41:08.916Z,19.00
2024-02-03T12:43:37.827Z,24.60
2024-02-03T12:46:07.626Z,23.60
2024-02-03T12:48:36.661Z,24.00
2024-02-03T12:51:07.336Z,11.00
2024-02-03T12:53:36.225Z,17.60
2024-02-03T12:56:05.829Z,19.20
2024-02-03T12:58:34.526Z,19.40
2024-02-03T13:01:04.693Z,19.80
2024-02-03T13:03:33.693Z,24.80
2024-02-03T13:06:03.427Z,26.20
2024-02-03T13:08:33.801Z,20.60
2024-02-03T13:11:02.892Z,21.40
2024-02-03T13:13:31.604Z,21.80
2024-02-03T13:16:00.645Z,26.60
2024-02-03T13:18:29.497Z,23.40
2024-02-03T13:20:59.600Z,23.40
2024-02-03T13:23:28.254Z,21.60
2024-02-03T13:25:58.657Z,21.00
2024-02-03T13:28:27.422Z,18.80
2024-02-03T13:30:56.769Z,21.40
2024-02-03T13:33:25.707Z,29.00
2024-02-03T13:35:55.875Z,25.00
2024-02-03T13:38:24.669Z,23.00
2024-02-03T13:40:53.896Z,22.60
2024-02-03T13:43:23.941Z,21.20
2024-02-03T13:45:53.046Z,26.20
2024-02-03T13:48:21.956Z,23.40
2024-02-03T13:50:51.263Z,20.60
2024-02-03T13:53:20.152Z,22.80
2024-02-03T13:55:49.346Z,21.40
2024-02-03T13:58:18.078Z,20.60
2024-02-03T14:00:48.682Z,16.80
2024-02-03T14:03:18.192Z,18.80
2024-02-03T14:05:47.344Z,20.60
2024-02-03T14:08:17.365Z,16.00
2024-02-03T14:10:47.296Z,21.80
2024-02-03T14:13:16.065Z,18.20
2024-02-03T14:15:45.769Z,18.20
2024-02-03T14:18:16.037Z,22.20
2024-02-03T14:20:45.145Z,21.60
2024-02-03T14:23:13.909Z,21.40
2024-02-03T14:25:43.001Z,15.00
2024-02-03T14:28:11.799Z,15.60
2024-02-03T14:30:40.828Z,23.20
2024-02-03T14:33:09.803Z,20.80
2024-02-03T14:35:40.444Z,26.80
2024-02-03T14:38:09.208Z,20.20
2024-02-03T14:40:38.287Z,19.80
2024-02-03T14:43:06.930Z,22.00
2024-02-03T14:45:36.035Z,19.20
2024-02-03T14:48:05.031Z,19.60
2024-02-03T14:50:34.251Z,18.20
2024-02-03T14:53:04.970Z,17.20
2024-02-03T14:55:34.025Z,20.60
2024-02-03T14:58:02.716Z,20.60
2024-02-03T15:00:32.062Z,20.00
2024-02-03T15:03:00.853Z,16.40
2024-02-03T15:05:30.017Z,22.20
2024-02-03T15:07:58.767Z,13.80
2024-02-03T15:10:30.661Z,16.80
2024-02-03T15:12:59.519Z,22.00
2024-02-03T15:15:28.661Z,26.00
2024-02-03T15:17:57.370Z,23.40
2024-02-03T15:20:26.325Z,22.80
2024-02-03T15:22:56.986Z,22.00
2024-02-03T15:25:28.713Z,28.40
2024-02-03T15:27:57.522Z,24.40
2024-02-03T15:30:26.660Z,25.60
2024-02-03T15:32:55.484Z,32.00
2024-02-03T15:35:24.834Z,43.50
2024-02-03T15:37:54.487Z,40.75
2024-02-03T15:40:26.502Z,40.00
2024-02-03T15:42:58.710Z,30.60
2024-02-03T15:45:28.291Z,43.00
2024-02-03T15:47:57.439Z,47.25
2024-02-03T15:50:26.667Z,44.50
2024-02-03T15:52:55.371Z,40.50
2024-02-03T15:55:24.481Z,34.80
2024-02-03T15:57:53.347Z,19.00
2024-02-03T16:00:24.028Z,28.80
2024-02-03T16:02:52.894Z,27.00
2024-02-03T16:05:22.132Z,28.20
2024-02-03T16:07:50.993Z,27.40
2024-02-03T16:10:20.230Z,45.00
2024-02-03T16:12:49.247Z,39.60
2024-02-03T16:15:18.723Z,36.60
2024-02-03T16:17:49.501Z,29.60
2024-02-03T16:20:19.093Z,38.00
2024-02-03T16:22:48.013Z,34.40
2024-02-03T16:25:17.444Z,36.80
2024-02-03T16:27:46.820Z,30.60
2024-02-03T16:30:17.317Z,23.00
2024-02-03T16:32:46.557Z,32.80
2024-02-03T16:35:17.329Z,33.80
2024-02-03T16:37:46.163Z,29.60
2024-02-03T16:40:15.376Z,36.80
2024-02-03T16:42:44.116Z,35.80
2024-02-03T16:45:13.293Z,50.50
2024-02-03T16:47:41.948Z,33.80
2024-02-03T16:50:11.742Z,40.25
2024-02-03T16:52:41.748Z,40.50
2024-02-03T16:55:10.868Z,43.25
2024-02-03T16:57:39.786Z,42.50
2024-02-03T17:00:10.530Z,49.00
2024-02-03T17:02:39.717Z,50.75
2024-02-03T17:05:09.226Z,48.75
2024-02-03T17:07:39.036Z,41.50
2024-02-03T17:10:10.892Z,51.25
2024-02-03T17:12:39.663Z,41.75
2024-02-03T17:15:10.394Z,45.75
2024-02-03T17:17:39.193Z,46.75
2024-02-03T17:20:10.153Z,34.00
2024-02-03T17:22:39.467Z,34.20
2024-02-03T17:25:10.792Z,35.25
2024-02-03T17:27:40.952Z,39.25
2024-02-03T17:30:15.552Z,54.00
2024-02-03T17:32:44.471Z,41.40
2024-02-03T17:35:13.524Z,43.50
2024-02-03T17:37:43.061Z,37.60
2024-02-03T17:40:16.502Z,34.20
2024-02-03T17:42:48.344Z,44.25
2024-02-03T17:45:22.501Z,47.50
2024-02-03T17:47:53.232Z,105.75
2024-02-03T17:50:22.316Z,43.25
2024-02-03T17:52:52.075Z,46.50
2024-02-03T17:55:22.454Z,48.75
2024-02-03T17:57:51.514Z,42.00
2024-02-03T18:00:21.447Z,44.00
2024-02-03T18:02:50.283Z,38.25
2024-02-03T18:05:20.083Z,44.00
2024-02-03T18:07:48.854Z,40.00
2024-02-03T18:10:17.912Z,49.50
2024-02-03T18:12:48.051Z,47.00
2024-02-03T18:15:17.525Z,32.80
2024-02-03T18:17:46.272Z,40.20
2024-02-03T18:20:18.429Z,40.75
2024-02-03T18:22:48.525Z,43.00
2024-02-03T18:25:17.730Z,29.40
2024-02-03T18:27:47.860Z,41.20
2024-02-03T18:30:17.406Z,39.00
2024-02-03T18:32:47.020Z,36.60
2024-02-03T18:35:16.613Z,32.75
2024-02-03T18:37:45.242Z,41.25
2024-02-03T18:40:14.609Z,38.50
2024-02-03T18:42:44.610Z,37.25
2024-02-03T18:45:15.541Z,51.25
2024-02-03T18:47:44.379Z,50.50
2024-02-03T18:50:13.383Z,43.00
2024-02-03T18:52:42.070Z,35.25
2024-02-03T18:55:11.227Z,40.00
2024-02-03T18:57:39.914Z,30.60
2024-02-03T19:00:10.281Z,41.60
2024-02-03T19:02:40.614Z,38.25
2024-02-03T19:05:09.953Z,38.80
2024-02-03T19:07:38.640Z,36.60
2024-02-03T19:10:08.861Z,44.60
2024-02-03T19:12:37.598Z,46.00
2024-02-03T19:15:07.513Z,44.25
2024-02-03T19:17:39.482Z,52.25
2024-02-03T19:20:11.882Z,41.25
2024-02-03T19:22:40.790Z,46.25
2024-02-03T19:25:10.063Z,60.00
2024-02-03T19:27:38.847Z,49.50
2024-02-03T19:30:08.817Z,52.50
2024-02-03T19:32:37.590Z,47.00
2024-02-03T19:35:07.539Z,48.75
2024-02-03T19:37:37.666Z,45.75
2024-02-03T19:40:07.972Z,52.25
2024-02-03T19:42:36.731Z,48.25
2024-02-03T19:45:07.002Z,45.50
2024-02-03T19:47:36.195Z,46.25
2024-02-03T19:50:06.716Z,48.50
2024-02-03T19:52:35.628Z,50.00
2024-02-03T19:55:06.965Z,50.75
2024-02-03T19:57:35.690Z,50.75
2024-02-03T20:00:05.336Z,55.25
2024-02-03T20:02:34.237Z,58.00
2024-02-03T20:05:03.538Z,49.50
2024-02-03T20:07:37.228Z,50.00
2024-02-03T20:10:09.939Z,51.25
2024-02-03T20:12:40.286Z,53.75
2024-02-03T20:15:10.038Z,57.25
2024-02-03T20:17:39.298Z,77.67
2024-02-03T20:20:09.449Z,65.00
2024-02-03T20:22:38.447Z,62.00
2024-02-03T20:25:09.648Z,60.75
2024-02-03T20:27:38.918Z,62.25
2024-02-03T20:30:09.146Z,60.00
2024-02-03T20:32:38.073Z,58.75
2024-02-03T20:35:07.890Z,60.25
2024-02-03T20:37:36.785Z,53.50
2024-02-03T20:40:06.644Z,63.75
2024-02-03T20:42:36.750Z,64.50
2024-02-03T20:45:06.595Z,62.00
2024-02-03T20:47:35.386Z,64.50
2024-02-03T20:50:04.933Z,68.75
2024-02-03T20:52:35.914Z,69.50
2024-02-03T20:55:05.124Z,58.25
2024-02-03T20:57:34.006Z,67.50
2024-02-03T21:00:05.993Z,62.00
2024-02-03T21:02:35.065Z,54.50
2024-02-03T21:05:04.934Z,57.50
2024-02-03T21:07:33.882Z,53.00
2024-02-03T21:10:03.325Z,57.50
2024-02-03T21:12:33.080Z,57.75
2024-02-03T21:15:02.185Z,40.75
2024-02-03T21:17:33.071Z,56.50
2024-02-03T21:20:02.887Z,54.50
2024-02-03T21:22:31.915Z,56.25
2024-02-03T21:25:01.055Z,52.25
2024-02-03T21:27:29.945Z,56.50
2024-02-03T21:29:58.935Z,58.50
2024-02-03T21:32:27.625Z,59.25
2024-02-03T21:34:58.326Z,63.50
2024-02-03T21:37:27.133Z,61.25
2024-02-03T21:39:56.271Z,63.50
2024-02-03T21:42:25.468Z,60.50
2024-02-03T21:44:54.643Z,59.00
2024-02-03T21:47:23.331Z,63.25
2024-02-03T21:49:52.475Z,66.00
2024-02-03T21:52:26.538Z,64.75
2024-02-03T21:54:55.999Z,57.50
2024-02-03T21:57:24.876Z,66.50
2024-02-03T21:59:53.961Z,65.25
2024-02-03T22:02:22.616Z,68.75
2024-02-03T22:04:51.800Z,68.75
2024-02-03T22:07:20.679Z,65.00
2024-02-03T22:09:51.212Z,65.75
2024-02-03T22:12:20.034Z,70.50
2024-02-03T22:14:49.052Z,65.75
2024-02-03T22:17:17.748Z,72.50
2024-02-03T22:19:47.218Z,65.00
2024-02-03T22:22:16.048Z,64.50
2024-02-03T22:24:45.133Z,68.00
2024-02-03T22:27:15.568Z,63.75
2024-02-03T22:29:44.664Z,64.75
2024-02-03T22:32:13.389Z,67.25
2024-02-03T22:34:42.505Z,64.25
2024-02-03T22:37:11.587Z,59.75
2024-02-03T22:39:40.660Z,67.25
2024-02-03T22:42:09.336Z,64.00
2024-02-03T22:44:39.769Z,66.50
2024-02-03T22:47:08.613Z,65.25
2024-02-03T22:49:37.666Z,63.00
2024-02-03T22:52:07.526Z,60.75
2024-02-03T22:54:36.596Z,61.50
2024-02-03T22:57:05.585Z,63.75
2024-02-03T22:59:34.752Z,60.25
2024-02-03T23:02:05.797Z,63.00
2024-02-03T23:04:34.848Z,57.50
2024-02-03T23:07:03.688Z,54.25
2024-02-03T23:09:32.742Z,62.50
2024-02-03T23:12:01.649Z,61.75
2024-02-03T23:14:30.677Z,63.50
2024-02-03T23:16:59.526Z,66.00
2024-02-03T23:19:29.961Z,66.00
2024-02-03T23:21:58.679Z,65.50
2024-02-03T23:24:27.668Z,69.50
2024-02-03T23:26:56.351Z,62.75
2024-02-03T23:29:25.486Z,63.75
2024-02-03T23:31:54.138Z,63.00
2024-02-03T23:34:23.293Z,55.00
2024-02-03T23:36:53.455Z,59.25
2024-02-03T23:39:23.985Z,59.75
2024-02-03T23:41:52.835Z,58.00
2024-02-03T23:44:22.164Z,58.50
2024-02-03T23:46:50.791Z,60.50
2024-02-03T23:49:20.041Z,60.00
2024-02-03T23:51:49.036Z,59.75
2024-02-03T23:54:19.522Z,64.00
2024-02-03T23:56:48.248Z,62.50
2024-02-03T23:59:17.320Z,61.00
